sensor_id;sensor_type;location;lat;lon;timestamp;temperature;humidity
2647;DHT22;1333;50.958;6.770;2023-07-02T00:00:07;17.30;99.90
2647;DHT22;1333;50.958;6.770;2023-07-02T00:02:33;17.30;99.90
2647;DHT22;1333;50.958;6.770;2023-07-02T00:04:59;17.40;99.90
2647;DHT22;1333;50.958;6.770;2023-07-02T00:07:25;17.40;99.90
2647;DHT22;1333;50.958;6.770;2023-07-02T00:09:53;17.40;99.90
2647;DHT22;1333;50.958;6.770;2023-07-02T00:12:18;17.40;99.90
2647;DHT22;1333;50.958;6.770;2023-07-02T00:14:44;17.40;99.90
2647;DHT22;1333;50.958;6.770;2023-07-02T00:17:10;17.40;99.90
2647;DHT22;1333;50.958;6.770;2023-07-02T00:19:39;17.50;99.90
2647;DHT22;1333;50.958;6.770;2023-07-02T00:22:09;17.50;99.90
2647;DHT22;1333;50.958;6.770;2023-07-02T00:24:36;17.50;99.90
2647;DHT22;1333;50.958;6.770;2023-07-02T00:27:02;17.60;99.90
2647;DHT22;1333;50.958;6.770;2023-07-02T00:29:27;17.60;99.90
2647;DHT22;1333;50.958;6.770;2023-07-02T00:31:53;17.40;99.90
2647;DHT22;1333;50.958;6.770;2023-07-02T00:34:19;17.40;99.90
2647;DHT22;1333;50.958;6.770;2023-07-02T00:36:44;17.40;99.90
2647;DHT22;1333;50.958;6.770;2023-07-02T00:39:10;17.40;99.90
2647;DHT22;1333;50.958;6.770;2023-07-02T00:41:37;17.40;99.90
2647;DHT22;1333;50.958;6.770;2023-07-02T00:44:03;17.30;99.90
2647;DHT22;1333;50.958;6.770;2023-07-02T00:46:28;17.30;99.90
2647;DHT22;1333;50.958;6.770;2023-07-02T00:48:55;17.20;99.90
2647;DHT22;1333;50.958;6.770;2023-07-02T00:51:26;17.20;99.90
2647;DHT22;1333;50.958;6.770;2023-07-02T00:53:55;17.20;99.90
2647;DHT22;1333;50.958;6.770;2023-07-02T00:56:22;17.10;99.90
2647;DHT22;1333;50.958;6.770;2023-07-02T00:58:49;17.10;99.90
2647;DHT22;1333;50.958;6.770;2023-07-02T01:01:20;17.10;99.90
2647;DHT22;1333;50.958;6.770;2023-07-02T01:06:39;17.00;99.90
2647;DHT22;1333;50.958;6.770;2023-07-02T01:09:09;17.10;99.90
2647;DHT22;1333;50.958;6.770;2023-07-02T01:11:43;17.10;99.90
2647;DHT22;1333;50.958;6.770;2023-07-02T01:14:15;17.10;99.90
2647;DHT22;1333;50.958;6.770;2023-07-02T01:16:42;17.10;99.90
2647;DHT22;1333;50.958;6.770;2023-07-02T01:20:12;17.00;99.90
2647;DHT22;1333;50.958;6.770;2023-07-02T01:22:07;16.90;99.90
2647;DHT22;1333;50.958;6.770;2023-07-02T01:24:33;16.90;99.90
2647;DHT22;1333;50.958;6.770;2023-07-02T01:26:59;16.90;99.90
2647;DHT22;1333;50.958;6.770;2023-07-02T01:29:29;16.90;99.90
2647;DHT22;1333;50.958;6.770;2023-07-02T01:31:55;16.90;99.90
2647;DHT22;1333;50.958;6.770;2023-07-02T01:34:21;16.90;99.90
2647;DHT22;1333;50.958;6.770;2023-07-02T01:36:47;16.90;99.90
2647;DHT22;1333;50.958;6.770;2023-07-02T01:39:12;16.90;99.90
2647;DHT22;1333;50.958;6.770;2023-07-02T01:41:52;16.80;99.90
2647;DHT22;1333;50.958;6.770;2023-07-02T01:44:18;16.80;99.90
2647;DHT22;1333;50.958;6.770;2023-07-02T01:46:47;16.80;99.90
2647;DHT22;1333;50.958;6.770;2023-07-02T01:49:18;16.80;99.90
2647;DHT22;1333;50.958;6.770;2023-07-02T01:51:51;16.70;99.90
2647;DHT22;1333;50.958;6.770;2023-07-02T01:54:18;16.70;99.90
2647;DHT22;1333;50.958;6.770;2023-07-02T01:56:44;16.70;99.90
2647;DHT22;1333;50.958;6.770;2023-07-02T01:59:09;16.70;99.90
2647;DHT22;1333;50.958;6.770;2023-07-02T02:01:35;16.70;99.90
2647;DHT22;1333;50.958;6.770;2023-07-02T02:04:00;16.60;99.90
2647;DHT22;1333;50.958;6.770;2023-07-02T02:06:26;16.60;99.90
2647;DHT22;1333;50.958;6.770;2023-07-02T02:08:51;16.60;99.90
2647;DHT22;1333;50.958;6.770;2023-07-02T02:11:17;16.60;99.90
2647;DHT22;1333;50.958;6.770;2023-07-02T02:13:43;16.60;99.90
2647;DHT22;1333;50.958;6.770;2023-07-02T02:16:08;16.60;99.90
2647;DHT22;1333;50.958;6.770;2023-07-02T02:18:34;16.60;99.90
2647;DHT22;1333;50.958;6.770;2023-07-02T02:21:00;16.60;99.90
2647;DHT22;1333;50.958;6.770;2023-07-02T02:23:25;16.50;99.90
2647;DHT22;1333;50.958;6.770;2023-07-02T02:25:51;16.50;99.90
2647;DHT22;1333;50.958;6.770;2023-07-02T02:28:16;16.50;99.90
2647;DHT22;1333;50.958;6.770;2023-07-02T02:30:42;16.50;99.90
2647;DHT22;1333;50.958;6.770;2023-07-02T02:33:07;16.50;99.90
2647;DHT22;1333;50.958;6.770;2023-07-02T02:35:33;16.50;99.90
2647;DHT22;1333;50.958;6.770;2023-07-02T02:38:02;16.50;99.90
2647;DHT22;1333;50.958;6.770;2023-07-02T02:40:27;16.40;99.90
2647;DHT22;1333;50.958;6.770;2023-07-02T02:42:53;16.50;99.90
2647;DHT22;1333;50.958;6.770;2023-07-02T02:45:19;16.50;99.90
2647;DHT22;1333;50.958;6.770;2023-07-02T02:47:46;16.40;99.90
2647;DHT22;1333;50.958;6.770;2023-07-02T02:50:12;16.40;99.90
2647;DHT22;1333;50.958;6.770;2023-07-02T02:52:38;16.30;99.90
2647;DHT22;1333;50.958;6.770;2023-07-02T02:55:05;16.40;99.90
2647;DHT22;1333;50.958;6.770;2023-07-02T02:57:32;16.30;99.90
2647;DHT22;1333;50.958;6.770;2023-07-02T02:59:57;16.30;99.90
2647;DHT22;1333;50.958;6.770;2023-07-02T03:02:23;16.20;99.90
2647;DHT22;1333;50.958;6.770;2023-07-02T03:04:49;16.20;99.90
2647;DHT22;1333;50.958;6.770;2023-07-02T03:07:15;16.10;99.90
2647;DHT22;1333;50.958;6.770;2023-07-02T03:09:40;16.10;99.90
2647;DHT22;1333;50.958;6.770;2023-07-02T03:12:06;16.10;99.90
2647;DHT22;1333;50.958;6.770;2023-07-02T03:14:32;16.00;99.90
2647;DHT22;1333;50.958;6.770;2023-07-02T03:16:58;16.00;99.90
2647;DHT22;1333;50.958;6.770;2023-07-02T03:19:24;16.00;99.90
2647;DHT22;1333;50.958;6.770;2023-07-02T03:21:49;16.00;99.90
2647;DHT22;1333;50.958;6.770;2023-07-02T03:24:15;16.00;99.90
2647;DHT22;1333;50.958;6.770;2023-07-02T03:26:42;15.90;99.90
2647;DHT22;1333;50.958;6.770;2023-07-02T03:29:08;15.90;99.90
2647;DHT22;1333;50.958;6.770;2023-07-02T03:31:33;15.80;99.90
2647;DHT22;1333;50.958;6.770;2023-07-02T03:34:03;15.90;99.90
2647;DHT22;1333;50.958;6.770;2023-07-02T03:36:29;15.90;99.90
2647;DHT22;1333;50.958;6.770;2023-07-02T03:38:55;15.90;99.90
2647;DHT22;1333;50.958;6.770;2023-07-02T03:41:20;16.00;99.90
2647;DHT22;1333;50.958;6.770;2023-07-02T03:43:46;16.00;99.90
2647;DHT22;1333;50.958;6.770;2023-07-02T03:46:13;16.00;99.90
2647;DHT22;1333;50.958;6.770;2023-07-02T03:48:39;16.10;99.90
2647;DHT22;1333;50.958;6.770;2023-07-02T03:51:05;16.00;99.90
2647;DHT22;1333;50.958;6.770;2023-07-02T03:53:30;16.00;99.90
2647;DHT22;1333;50.958;6.770;2023-07-02T03:55:56;16.00;99.90
2647;DHT22;1333;50.958;6.770;2023-07-02T03:58:21;16.00;99.90
2647;DHT22;1333;50.958;6.770;2023-07-02T04:00:47;16.10;99.90
2647;DHT22;1333;50.958;6.770;2023-07-02T04:03:15;16.10;99.90
2647;DHT22;1333;50.958;6.770;2023-07-02T04:05:41;16.10;99.90
2647;DHT22;1333;50.958;6.770;2023-07-02T04:08:07;16.20;99.90
2647;DHT22;1333;50.958;6.770;2023-07-02T04:10:32;16.30;99.90
2647;DHT22;1333;50.958;6.770;2023-07-02T04:12:58;16.30;99.90
2647;DHT22;1333;50.958;6.770;2023-07-02T04:15:24;16.40;99.90
2647;DHT22;1333;50.958;6.770;2023-07-02T04:17:51;16.50;99.90
2647;DHT22;1333;50.958;6.770;2023-07-02T04:20:16;16.50;99.90
2647;DHT22;1333;50.958;6.770;2023-07-02T04:22:44;16.50;99.90
2647;DHT22;1333;50.958;6.770;2023-07-02T04:25:11;16.50;99.90
2647;DHT22;1333;50.958;6.770;2023-07-02T04:27:36;16.60;99.90
2647;DHT22;1333;50.958;6.770;2023-07-02T04:30:02;16.70;99.90
2647;DHT22;1333;50.958;6.770;2023-07-02T04:32:28;16.70;99.90
2647;DHT22;1333;50.958;6.770;2023-07-02T04:34:54;16.60;99.90
2647;DHT22;1333;50.958;6.770;2023-07-02T04:37:19;16.60;99.90
2647;DHT22;1333;50.958;6.770;2023-07-02T04:39:47;16.60;99.90
2647;DHT22;1333;50.958;6.770;2023-07-02T04:42:12;16.70;99.90
2647;DHT22;1333;50.958;6.770;2023-07-02T04:44:40;16.70;99.90
2647;DHT22;1333;50.958;6.770;2023-07-02T04:47:08;16.80;99.90
2647;DHT22;1333;50.958;6.770;2023-07-02T04:49:34;16.70;99.90
2647;DHT22;1333;50.958;6.770;2023-07-02T04:51:59;16.80;99.90
2647;DHT22;1333;50.958;6.770;2023-07-02T04:54:25;16.80;99.90
2647;DHT22;1333;50.958;6.770;2023-07-02T04:56:50;16.80;99.90
2647;DHT22;1333;50.958;6.770;2023-07-02T04:59:16;16.90;99.90
2647;DHT22;1333;50.958;6.770;2023-07-02T05:01:42;17.10;99.90
2647;DHT22;1333;50.958;6.770;2023-07-02T05:04:10;17.10;99.90
2647;DHT22;1333;50.958;6.770;2023-07-02T05:06:36;17.20;99.90
2647;DHT22;1333;50.958;6.770;2023-07-02T05:09:02;17.20;99.90
2647;DHT22;1333;50.958;6.770;2023-07-02T05:11:27;17.20;99.90
2647;DHT22;1333;50.958;6.770;2023-07-02T05:13:53;17.40;99.90
2647;DHT22;1333;50.958;6.770;2023-07-02T05:16:19;17.40;99.90
2647;DHT22;1333;50.958;6.770;2023-07-02T05:18:44;17.40;99.90
2647;DHT22;1333;50.958;6.770;2023-07-02T05:21:10;17.50;99.90
2647;DHT22;1333;50.958;6.770;2023-07-02T05:23:36;17.40;99.90
2647;DHT22;1333;50.958;6.770;2023-07-02T05:26:02;17.40;99.90
2647;DHT22;1333;50.958;6.770;2023-07-02T05:28:27;17.60;99.90
2647;DHT22;1333;50.958;6.770;2023-07-02T05:30:53;17.80;99.90
2647;DHT22;1333;50.958;6.770;2023-07-02T05:33:19;17.90;99.90
2647;DHT22;1333;50.958;6.770;2023-07-02T05:35:45;18.00;99.90
2647;DHT22;1333;50.958;6.770;2023-07-02T05:38:11;18.10;99.90
2647;DHT22;1333;50.958;6.770;2023-07-02T05:40:37;18.20;99.90
2647;DHT22;1333;50.958;6.770;2023-07-02T05:43:02;18.40;99.90
2647;DHT22;1333;50.958;6.770;2023-07-02T05:45:28;18.40;99.90
2647;DHT22;1333;50.958;6.770;2023-07-02T05:47:54;18.60;99.90
2647;DHT22;1333;50.958;6.770;2023-07-02T05:50:20;18.80;99.90
2647;DHT22;1333;50.958;6.770;2023-07-02T05:52:45;18.70;99.90
2647;DHT22;1333;50.958;6.770;2023-07-02T05:55:11;18.70;99.90
2647;DHT22;1333;50.958;6.770;2023-07-02T05:57:37;18.70;99.90
2647;DHT22;1333;50.958;6.770;2023-07-02T06:00:06;18.80;99.90
2647;DHT22;1333;50.958;6.770;2023-07-02T06:02:32;18.90;99.90
2647;DHT22;1333;50.958;6.770;2023-07-02T06:04:58;19.10;99.90
2647;DHT22;1333;50.958;6.770;2023-07-02T06:07:26;19.20;99.90
2647;DHT22;1333;50.958;6.770;2023-07-02T06:09:51;19.10;99.90
2647;DHT22;1333;50.958;6.770;2023-07-02T06:12:17;19.30;99.90
2647;DHT22;1333;50.958;6.770;2023-07-02T06:14:42;19.30;99.90
2647;DHT22;1333;50.958;6.770;2023-07-02T06:17:08;19.30;99.90
2647;DHT22;1333;50.958;6.770;2023-07-02T06:19:36;19.30;99.90
2647;DHT22;1333;50.958;6.770;2023-07-02T06:22:02;19.60;99.90
2647;DHT22;1333;50.958;6.770;2023-07-02T06:24:27;19.80;99.90
2647;DHT22;1333;50.958;6.770;2023-07-02T06:26:53;20.00;99.90
2647;DHT22;1333;50.958;6.770;2023-07-02T06:29:18;19.80;99.90
2647;DHT22;1333;50.958;6.770;2023-07-02T06:31:44;20.00;99.90
2647;DHT22;1333;50.958;6.770;2023-07-02T06:34:09;20.40;99.90
2647;DHT22;1333;50.958;6.770;2023-07-02T06:36:35;20.50;99.90
2647;DHT22;1333;50.958;6.770;2023-07-02T06:39:01;20.60;99.90
2647;DHT22;1333;50.958;6.770;2023-07-02T06:41:26;20.60;99.90
2647;DHT22;1333;50.958;6.770;2023-07-02T06:43:52;20.50;99.90
2647;DHT22;1333;50.958;6.770;2023-07-02T06:46:17;20.40;99.90
2647;DHT22;1333;50.958;6.770;2023-07-02T06:48:43;20.20;99.90
2647;DHT22;1333;50.958;6.770;2023-07-02T06:51:08;20.30;99.90
2647;DHT22;1333;50.958;6.770;2023-07-02T06:53:35;20.50;99.90
2647;DHT22;1333;50.958;6.770;2023-07-02T06:56:02;20.40;99.90
2647;DHT22;1333;50.958;6.770;2023-07-02T06:58:27;20.70;99.90
2647;DHT22;1333;50.958;6.770;2023-07-02T07:00:53;20.70;99.90
2647;DHT22;1333;50.958;6.770;2023-07-02T07:03:18;21.00;99.90
2647;DHT22;1333;50.958;6.770;2023-07-02T07:05:44;21.20;99.90
2647;DHT22;1333;50.958;6.770;2023-07-02T07:08:09;21.30;99.90
2647;DHT22;1333;50.958;6.770;2023-07-02T07:10:35;21.50;99.90
2647;DHT22;1333;50.958;6.770;2023-07-02T07:13:03;21.70;99.90
2647;DHT22;1333;50.958;6.770;2023-07-02T07:15:33;22.00;99.90
2647;DHT22;1333;50.958;6.770;2023-07-02T07:18:00;22.30;99.90
2647;DHT22;1333;50.958;6.770;2023-07-02T07:20:26;22.40;99.90
2647;DHT22;1333;50.958;6.770;2023-07-02T07:22:51;22.20;99.90
2647;DHT22;1333;50.958;6.770;2023-07-02T07:25:17;22.60;99.90
2647;DHT22;1333;50.958;6.770;2023-07-02T07:27:42;23.00;99.90
2647;DHT22;1333;50.958;6.770;2023-07-02T07:30:08;23.30;99.90
2647;DHT22;1333;50.958;6.770;2023-07-02T07:32:34;23.90;99.90
2647;DHT22;1333;50.958;6.770;2023-07-02T07:34:59;24.30;99.90
2647;DHT22;1333;50.958;6.770;2023-07-02T07:37:25;24.60;99.90
2647;DHT22;1333;50.958;6.770;2023-07-02T07:39:51;24.90;99.90
2647;DHT22;1333;50.958;6.770;2023-07-02T07:42:16;25.80;99.90
2647;DHT22;1333;50.958;6.770;2023-07-02T07:44:44;26.40;96.40
2647;DHT22;1333;50.958;6.770;2023-07-02T07:47:09;27.10;92.90
2647;DHT22;1333;50.958;6.770;2023-07-02T07:49:35;27.60;89.30
2647;DHT22;1333;50.958;6.770;2023-07-02T07:52:00;28.60;86.40
2647;DHT22;1333;50.958;6.770;2023-07-02T07:54:26;28.90;76.40
2647;DHT22;1333;50.958;6.770;2023-07-02T07:56:51;28.30;71.00
2647;DHT22;1333;50.958;6.770;2023-07-02T07:59:17;27.20;69.00
2647;DHT22;1333;50.958;6.770;2023-07-02T08:01:42;26.80;72.80
2647;DHT22;1333;50.958;6.770;2023-07-02T08:04:08;26.30;72.70
2647;DHT22;1333;50.958;6.770;2023-07-02T08:06:34;26.10;76.30
2647;DHT22;1333;50.958;6.770;2023-07-02T08:08:59;25.60;76.70
2647;DHT22;1333;50.958;6.770;2023-07-02T08:11:25;25.50;79.00
2647;DHT22;1333;50.958;6.770;2023-07-02T08:13:50;25.30;79.70
2647;DHT22;1333;50.958;6.770;2023-07-02T08:16:16;24.70;79.70
2647;DHT22;1333;50.958;6.770;2023-07-02T08:18:41;24.60;86.20
2647;DHT22;1333;50.958;6.770;2023-07-02T08:21:07;24.80;90.60
2647;DHT22;1333;50.958;6.770;2023-07-02T08:23:33;25.40;90.60
2647;DHT22;1333;50.958;6.770;2023-07-02T08:25:58;26.10;84.80
2647;DHT22;1333;50.958;6.770;2023-07-02T08:28:24;27.10;83.10
2647;DHT22;1333;50.958;6.770;2023-07-02T08:30:49;28.20;74.90
2647;DHT22;1333;50.958;6.770;2023-07-02T08:33:15;29.00;67.00
2647;DHT22;1333;50.958;6.770;2023-07-02T08:35:40;29.70;63.30
2647;DHT22;1333;50.958;6.770;2023-07-02T08:38:06;31.90;62.00
2647;DHT22;1333;50.958;6.770;2023-07-02T08:40:33;33.80;52.10
2647;DHT22;1333;50.958;6.770;2023-07-02T08:42:59;34.40;46.70
2647;DHT22;1333;50.958;6.770;2023-07-02T08:45:24;33.70;44.90
2647;DHT22;1333;50.958;6.770;2023-07-02T08:47:50;32.50;44.70
2647;DHT22;1333;50.958;6.770;2023-07-02T08:50:16;31.30;45.20
2647;DHT22;1333;50.958;6.770;2023-07-02T08:52:42;30.20;46.70
2647;DHT22;1333;50.958;6.770;2023-07-02T08:55:10;29.40;49.10
2647;DHT22;1333;50.958;6.770;2023-07-02T08:57:35;29.10;50.90
2647;DHT22;1333;50.958;6.770;2023-07-02T09:00:06;28.90;50.90
2647;DHT22;1333;50.958;6.770;2023-07-02T09:02:33;28.70;51.30
2647;DHT22;1333;50.958;6.770;2023-07-02T09:05:00;28.80;52.20
2647;DHT22;1333;50.958;6.770;2023-07-02T09:07:26;29.10;53.40
2647;DHT22;1333;50.958;6.770;2023-07-02T09:09:51;30.20;52.20
2647;DHT22;1333;50.958;6.770;2023-07-02T09:12:26;30.80;48.80
2647;DHT22;1333;50.958;6.770;2023-07-02T09:15:01;30.80;47.20
2647;DHT22;1333;50.958;6.770;2023-07-02T09:17:33;30.60;47.50
2647;DHT22;1333;50.958;6.770;2023-07-02T09:20:00;30.00;47.60
2647;DHT22;1333;50.958;6.770;2023-07-02T09:22:26;29.10;47.50
2647;DHT22;1333;50.958;6.770;2023-07-02T09:24:53;28.50;49.60
2647;DHT22;1333;50.958;6.770;2023-07-02T09:27:20;27.80;50.10
2647;DHT22;1333;50.958;6.770;2023-07-02T09:29:50;27.10;51.00
2647;DHT22;1333;50.958;6.770;2023-07-02T09:32:24;27.10;53.70
2647;DHT22;1333;50.958;6.770;2023-07-02T09:34:53;27.30;54.60
2647;DHT22;1333;50.958;6.770;2023-07-02T09:37:19;27.80;54.20
2647;DHT22;1333;50.958;6.770;2023-07-02T09:39:50;28.10;55.70
2647;DHT22;1333;50.958;6.770;2023-07-02T09:42:17;30.20;53.20
2647;DHT22;1333;50.958;6.770;2023-07-02T09:44:45;30.80;48.50
2647;DHT22;1333;50.958;6.770;2023-07-02T09:47:12;31.10;47.10
2647;DHT22;1333;50.958;6.770;2023-07-02T09:49:54;32.60;47.90
2647;DHT22;1333;50.958;6.770;2023-07-02T09:52:21;34.50;47.00
2647;DHT22;1333;50.958;6.770;2023-07-02T09:54:47;36.30;41.70
2647;DHT22;1333;50.958;6.770;2023-07-02T09:57:13;37.10;41.80
2647;DHT22;1333;50.958;6.770;2023-07-02T09:59:39;36.70;38.00
2647;DHT22;1333;50.958;6.770;2023-07-02T10:02:05;35.20;37.20
2647;DHT22;1333;50.958;6.770;2023-07-02T10:04:46;34.30;36.60
2647;DHT22;1333;50.958;6.770;2023-07-02T10:07:13;32.70;36.80
2647;DHT22;1333;50.958;6.770;2023-07-02T10:09:50;31.80;39.90
2647;DHT22;1333;50.958;6.770;2023-07-02T10:14:42;30.80;42.50
2647;DHT22;1333;50.958;6.770;2023-07-02T10:17:08;30.60;43.30
2647;DHT22;1333;50.958;6.770;2023-07-02T10:19:34;29.90;41.80
2647;DHT22;1333;50.958;6.770;2023-07-02T10:22:03;29.10;43.10
2647;DHT22;1333;50.958;6.770;2023-07-02T10:24:30;28.20;43.50
2647;DHT22;1333;50.958;6.770;2023-07-02T10:29:26;27.50;47.50
2647;DHT22;1333;50.958;6.770;2023-07-02T10:31:56;27.00;47.50
2647;DHT22;1333;50.958;6.770;2023-07-02T10:34:35;27.10;49.60
2647;DHT22;1333;50.958;6.770;2023-07-02T10:37:02;29.40;49.80
2647;DHT22;1333;50.958;6.770;2023-07-02T10:39:31;31.40;47.30
2647;DHT22;1333;50.958;6.770;2023-07-02T10:42:06;31.50;44.20
2647;DHT22;1333;50.958;6.770;2023-07-02T10:44:33;30.10;41.80
2647;DHT22;1333;50.958;6.770;2023-07-02T10:46:59;28.80;43.00
2647;DHT22;1333;50.958;6.770;2023-07-02T10:49:31;27.80;45.60
2647;DHT22;1333;50.958;6.770;2023-07-02T10:52:00;27.70;48.40
2647;DHT22;1333;50.958;6.770;2023-07-02T10:54:45;27.40;47.80
2647;DHT22;1333;50.958;6.770;2023-07-02T10:57:13;27.10;48.90
2647;DHT22;1333;50.958;6.770;2023-07-02T10:59:40;26.80;49.40
2647;DHT22;1333;50.958;6.770;2023-07-02T11:02:06;26.60;50.60
2647;DHT22;1333;50.958;6.770;2023-07-02T11:04:32;26.30;49.80
2647;DHT22;1333;50.958;6.770;2023-07-02T11:06:59;26.40;50.30
2647;DHT22;1333;50.958;6.770;2023-07-02T11:09:25;26.80;50.30
2647;DHT22;1333;50.958;6.770;2023-07-02T11:11:58;28.40;50.20
2647;DHT22;1333;50.958;6.770;2023-07-02T11:14:34;29.70;47.80
2647;DHT22;1333;50.958;6.770;2023-07-02T11:17:03;30.60;47.70
2647;DHT22;1333;50.958;6.770;2023-07-02T11:19:31;30.70;46.20
2647;DHT22;1333;50.958;6.770;2023-07-02T11:21:57;30.40;45.90
2647;DHT22;1333;50.958;6.770;2023-07-02T11:24:41;30.20;45.10
2647;DHT22;1333;50.958;6.770;2023-07-02T11:27:07;30.60;46.10
2647;DHT22;1333;50.958;6.770;2023-07-02T11:29:33;31.10;45.40
2647;DHT22;1333;50.958;6.770;2023-07-02T11:32:11;30.80;44.00
2647;DHT22;1333;50.958;6.770;2023-07-02T11:34:38;30.50;44.60
2647;DHT22;1333;50.958;6.770;2023-07-02T11:37:04;30.80;45.50
2647;DHT22;1333;50.958;6.770;2023-07-02T11:39:30;32.40;46.00
2647;DHT22;1333;50.958;6.770;2023-07-02T11:41:56;35.60;45.10
2647;DHT22;1333;50.958;6.770;2023-07-02T11:44:22;38.10;38.10
2647;DHT22;1333;50.958;6.770;2023-07-02T11:46:48;40.10;36.00
2647;DHT22;1333;50.958;6.770;2023-07-02T11:49:14;39.90;31.10
2647;DHT22;1333;50.958;6.770;2023-07-02T11:51:42;39.10;31.30
2647;DHT22;1333;50.958;6.770;2023-07-02T11:54:13;38.90;30.70
2647;DHT22;1333;50.958;6.770;2023-07-02T11:56:39;40.40;31.80
2647;DHT22;1333;50.958;6.770;2023-07-02T11:59:07;40.40;28.10
2647;DHT22;1333;50.958;6.770;2023-07-02T12:01:32;38.60;27.60
2647;DHT22;1333;50.958;6.770;2023-07-02T12:03:58;37.10;29.50
2647;DHT22;1333;50.958;6.770;2023-07-02T12:06:24;34.90;28.40
2647;DHT22;1333;50.958;6.770;2023-07-02T12:08:49;33.20;30.40
2647;DHT22;1333;50.958;6.770;2023-07-02T12:11:15;32.20;32.30
2647;DHT22;1333;50.958;6.770;2023-07-02T12:13:41;31.50;33.70
2647;DHT22;1333;50.958;6.770;2023-07-02T12:16:06;31.00;34.90
2647;DHT22;1333;50.958;6.770;2023-07-02T12:18:32;30.50;34.10
2647;DHT22;1333;50.958;6.770;2023-07-02T12:20:57;29.90;33.80
2647;DHT22;1333;50.958;6.770;2023-07-02T12:23:23;29.50;34.90
2647;DHT22;1333;50.958;6.770;2023-07-02T12:25:48;28.80;34.50
2647;DHT22;1333;50.958;6.770;2023-07-02T12:28:14;28.50;36.60
2647;DHT22;1333;50.958;6.770;2023-07-02T12:30:40;28.10;37.20
2647;DHT22;1333;50.958;6.770;2023-07-02T12:33:05;28.00;38.70
2647;DHT22;1333;50.958;6.770;2023-07-02T12:35:31;28.00;38.80
2647;DHT22;1333;50.958;6.770;2023-07-02T12:37:56;28.20;39.70
2647;DHT22;1333;50.958;6.770;2023-07-02T12:40:22;28.40;39.50
2647;DHT22;1333;50.958;6.770;2023-07-02T12:42:48;28.50;39.20
2647;DHT22;1333;50.958;6.770;2023-07-02T12:45:14;29.80;39.60
2647;DHT22;1333;50.958;6.770;2023-07-02T12:47:41;31.50;38.40
2647;DHT22;1333;50.958;6.770;2023-07-02T12:50:07;31.70;35.70
2647;DHT22;1333;50.958;6.770;2023-07-02T12:52:34;31.20;35.70
2647;DHT22;1333;50.958;6.770;2023-07-02T12:55:00;30.60;36.10
2647;DHT22;1333;50.958;6.770;2023-07-02T12:57:29;30.10;36.40
2647;DHT22;1333;50.958;6.770;2023-07-02T12:59:55;29.70;36.70
2647;DHT22;1333;50.958;6.770;2023-07-02T13:02:21;29.80;37.40
2647;DHT22;1333;50.958;6.770;2023-07-02T13:04:48;31.60;38.40
2647;DHT22;1333;50.958;6.770;2023-07-02T13:07:13;32.50;35.50
2647;DHT22;1333;50.958;6.770;2023-07-02T13:09:39;32.30;35.60
2647;DHT22;1333;50.958;6.770;2023-07-02T13:12:05;31.30;36.00
2647;DHT22;1333;50.958;6.770;2023-07-02T13:14:31;30.40;35.40
2647;DHT22;1333;50.958;6.770;2023-07-02T13:16:57;30.30;37.50
2647;DHT22;1333;50.958;6.770;2023-07-02T13:19:25;30.60;39.00
2647;DHT22;1333;50.958;6.770;2023-07-02T13:21:51;30.40;37.10
2647;DHT22;1333;50.958;6.770;2023-07-02T13:24:16;30.80;39.10
2647;DHT22;1333;50.958;6.770;2023-07-02T13:26:42;31.20;37.50
2647;DHT22;1333;50.958;6.770;2023-07-02T13:29:07;31.60;38.80
2647;DHT22;1333;50.958;6.770;2023-07-02T13:31:33;32.00;39.00
2647;DHT22;1333;50.958;6.770;2023-07-02T13:33:58;32.10;36.90
2647;DHT22;1333;50.958;6.770;2023-07-02T13:36:24;31.30;35.90
2647;DHT22;1333;50.958;6.770;2023-07-02T13:38:49;30.60;35.20
2647;DHT22;1333;50.958;6.770;2023-07-02T13:41:15;30.10;36.20
2647;DHT22;1333;50.958;6.770;2023-07-02T13:43:41;29.60;38.40
2647;DHT22;1333;50.958;6.770;2023-07-02T13:46:06;29.20;37.90
2647;DHT22;1333;50.958;6.770;2023-07-02T13:48:32;29.00;38.20
2647;DHT22;1333;50.958;6.770;2023-07-02T13:50:57;29.20;39.30
2647;DHT22;1333;50.958;6.770;2023-07-02T13:53:23;29.40;39.70
2647;DHT22;1333;50.958;6.770;2023-07-02T13:55:48;29.70;40.30
2647;DHT22;1333;50.958;6.770;2023-07-02T13:58:14;29.70;39.40
2647;DHT22;1333;50.958;6.770;2023-07-02T14:00:39;29.70;39.60
2647;DHT22;1333;50.958;6.770;2023-07-02T14:03:05;29.20;38.50
2647;DHT22;1333;50.958;6.770;2023-07-02T14:05:31;29.00;39.30
2647;DHT22;1333;50.958;6.770;2023-07-02T14:07:57;29.00;40.70
2647;DHT22;1333;50.958;6.770;2023-07-02T14:10:23;29.20;42.00
2647;DHT22;1333;50.958;6.770;2023-07-02T14:12:48;29.40;41.40
2647;DHT22;1333;50.958;6.770;2023-07-02T14:15:14;29.50;41.80
2647;DHT22;1333;50.958;6.770;2023-07-02T14:17:40;29.30;40.00
2647;DHT22;1333;50.958;6.770;2023-07-02T14:20:07;28.50;39.00
2647;DHT22;1333;50.958;6.770;2023-07-02T14:22:33;27.60;39.20
2647;DHT22;1333;50.958;6.770;2023-07-02T14:24:59;27.30;41.00
2647;DHT22;1333;50.958;6.770;2023-07-02T14:27:24;26.80;41.20
2647;DHT22;1333;50.958;6.770;2023-07-02T14:29:50;27.00;43.00
2647;DHT22;1333;50.958;6.770;2023-07-02T14:32:16;27.20;43.90
2647;DHT22;1333;50.958;6.770;2023-07-02T14:34:42;27.10;42.90
2647;DHT22;1333;50.958;6.770;2023-07-02T14:37:07;26.90;43.00
2647;DHT22;1333;50.958;6.770;2023-07-02T14:39:33;27.00;44.10
2647;DHT22;1333;50.958;6.770;2023-07-02T14:41:58;27.30;45.10
2647;DHT22;1333;50.958;6.770;2023-07-02T14:44:24;27.60;45.30
2647;DHT22;1333;50.958;6.770;2023-07-02T14:46:50;27.80;45.00
2647;DHT22;1333;50.958;6.770;2023-07-02T14:49:16;27.90;44.70
2647;DHT22;1333;50.958;6.770;2023-07-02T14:51:41;27.80;43.50
2647;DHT22;1333;50.958;6.770;2023-07-02T14:54:07;27.40;41.80
2647;DHT22;1333;50.958;6.770;2023-07-02T14:56:34;27.30;43.30
2647;DHT22;1333;50.958;6.770;2023-07-02T14:59:01;27.40;44.40
2647;DHT22;1333;50.958;6.770;2023-07-02T15:01:27;27.40;43.70
2647;DHT22;1333;50.958;6.770;2023-07-02T15:03:53;27.40;44.60
2647;DHT22;1333;50.958;6.770;2023-07-02T15:06:18;27.40;42.90
2647;DHT22;1333;50.958;6.770;2023-07-02T15:08:44;27.30;43.00
2647;DHT22;1333;50.958;6.770;2023-07-02T15:11:12;27.20;42.90
2647;DHT22;1333;50.958;6.770;2023-07-02T15:13:38;27.00;42.70
2647;DHT22;1333;50.958;6.770;2023-07-02T15:16:05;26.90;43.30
2647;DHT22;1333;50.958;6.770;2023-07-02T15:18:31;26.60;43.40
2647;DHT22;1333;50.958;6.770;2023-07-02T15:20:57;26.70;44.30
2647;DHT22;1333;50.958;6.770;2023-07-02T15:23:23;26.60;44.30
2647;DHT22;1333;50.958;6.770;2023-07-02T15:25:53;26.40;43.50
2647;DHT22;1333;50.958;6.770;2023-07-02T15:28:19;26.30;43.70
2647;DHT22;1333;50.958;6.770;2023-07-02T15:30:52;26.00;43.60
2647;DHT22;1333;50.958;6.770;2023-07-02T15:33:18;25.90;44.70
2647;DHT22;1333;50.958;6.770;2023-07-02T15:35:43;26.00;46.00
2647;DHT22;1333;50.958;6.770;2023-07-02T15:38:09;26.30;46.60
2647;DHT22;1333;50.958;6.770;2023-07-02T15:40:34;26.50;45.80
2647;DHT22;1333;50.958;6.770;2023-07-02T15:43:00;26.80;46.60
2647;DHT22;1333;50.958;6.770;2023-07-02T15:45:26;26.90;46.00
2647;DHT22;1333;50.958;6.770;2023-07-02T15:47:51;27.00;45.70
2647;DHT22;1333;50.958;6.770;2023-07-02T15:50:17;27.00;45.60
2647;DHT22;1333;50.958;6.770;2023-07-02T15:52:42;26.90;45.30
2647;DHT22;1333;50.958;6.770;2023-07-02T15:55:08;26.90;46.30
2647;DHT22;1333;50.958;6.770;2023-07-02T15:57:33;26.80;45.40
2647;DHT22;1333;50.958;6.770;2023-07-02T15:59:59;26.90;46.40
2647;DHT22;1333;50.958;6.770;2023-07-02T16:02:25;26.90;45.90
2647;DHT22;1333;50.958;6.770;2023-07-02T16:04:50;27.00;45.60